Time;durP1;ratioP1;P1;durP2;ratioP2;P2;SDS_P1;SDS_P2;PMS_P1;PMS_P2;Temp;Humidity;BMP_temperature;BMP_pressure;BME280_temperature;BME280_humidity;BME280_pressure;Samples;Min_cycle;Max_cycle;Signal;HPM_P1;HPM_P2
2022/06/08 00:00:00;;;;;;;8.05;2.80;;;;;;;17.10;100.00;99815.63;5013070;28;20018;-63
2022/06/08 00:02:30;;;;;;;7.13;2.60;;;;;;;17.08;100.00;99812.22;5013100;28;20445;-63
2022/06/08 00:04:55;;;;;;;5.85;2.20;;;;;;;17.04;100.00;99813.34;5012833;28;20112;-63
2022/06/08 00:07:20;;;;;;;4.70;2.65;;;;;;;17.04;100.00;99816.91;5012835;28;20080;-63
2022/06/08 00:09:46;;;;;;;6.75;2.28;;;;;;;17.03;100.00;99809.78;4995219;28;20389;-63
2022/06/08 00:12:12;;;;;;;6.07;2.67;;;;;;;16.99;100.00;99807.38;5012580;28;20025;-63
2022/06/08 00:14:41;;;;;;;6.50;2.47;;;;;;;16.98;100.00;99806.50;5012957;28;20026;-63
2022/06/08 00:17:07;;;;;;;6.32;2.50;;;;;;;16.96;100.00;99802.22;5012655;28;20022;-63
2022/06/08 00:19:33;;;;;;;5.63;2.67;;;;;;;16.95;100.00;99795.97;5012240;28;20030;-63
2022/06/08 00:21:58;;;;;;;5.25;2.83;;;;;;;16.94;100.00;99804.13;5011987;28;20085;-63
2022/06/08 00:24:24;;;;;;;4.15;2.50;;;;;;;16.88;100.00;99785.69;5010613;28;20030;-63
2022/06/08 00:26:50;;;;;;;5.75;2.47;;;;;;;16.92;100.00;99792.59;5010270;28;20079;-63
2022/06/08 00:29:15;;;;;;;5.80;3.10;;;;;;;16.90;100.00;99792.69;5011279;28;20159;-63
2022/06/08 00:31:41;;;;;;;8.23;3.50;;;;;;;16.90;100.00;99786.47;5010823;28;20030;-63
2022/06/08 00:34:07;;;;;;;5.20;2.88;;;;;;;16.92;100.00;99780.03;5010802;28;20441;-63
2022/06/08 00:36:33;;;;;;;5.78;3.00;;;;;;;16.92;100.00;99779.16;5010519;28;20101;-63
2022/06/08 00:38:58;;;;;;;6.57;3.00;;;;;;;16.85;100.00;99773.31;5010876;28;20431;-63
2022/06/08 00:41:36;;;;;;;7.13;2.95;;;;;;;16.81;100.00;99777.16;5012309;28;20389;-63
2022/06/08 00:44:05;;;;;;;6.38;2.58;;;;;;;16.84;100.00;99770.72;5012268;28;20436;-63
2022/06/08 00:46:30;;;;;;;6.80;3.10;;;;;;;16.83;100.00;99769.88;5012021;28;20105;-63
2022/06/08 00:49:02;;;;;;;4.53;2.88;;;;;;;16.86;100.00;99774.19;5011819;28;20116;-63
2022/06/08 00:51:28;;;;;;;4.68;2.42;;;;;;;16.87;100.00;99770.53;5012232;28;20022;-63
2022/06/08 00:54:03;;;;;;;7.47;2.65;;;;;;;16.84;100.00;99765.34;5012183;28;20489;-63
2022/06/08 00:56:36;;;;;;;5.43;2.35;;;;;;;16.87;100.00;99765.16;5011745;28;20386;-63
2022/06/08 00:59:04;;;;;;;;;;;;;;;16.88;100.00;99766.91;5012427;28;20504;-62
2022/06/08 01:01:29;;;;;;;4.78;2.38;;;;;;;16.90;100.00;99765.81;5011903;28;20411;-63
2022/06/08 01:04:10;;;;;;;5.20;2.50;;;;;;;16.92;100.00;99754.97;5012405;28;20026;-63
2022/06/08 01:06:36;;;;;;;5.63;2.67;;;;;;;16.90;100.00;99762.31;5011872;28;20061;-62
2022/06/08 01:09:02;;;;;;;4.55;2.70;;;;;;;16.87;100.00;99765.16;5011837;28;20125;-63
2022/06/08 01:11:46;;;;;;;6.97;2.63;;;;;;;16.85;100.00;99762.56;5011573;28;20026;-63
2022/06/08 01:14:14;;;;;;;3.55;2.40;;;;;;;16.83;100.00;99759.13;5011725;28;20037;-63
2022/06/08 01:16:43;;;;;;;4.22;2.10;;;;;;;16.81;100.00;99755.66;5011734;28;20064;-63
2022/06/08 01:19:10;;;;;;;3.80;2.00;;;;;;;16.75;100.00;99758.72;5011815;28;20025;-63
2022/06/08 01:21:36;;;;;;;4.88;2.25;;;;;;;16.69;100.00;99755.53;5011621;28;20060;-63
2022/06/08 01:24:06;;;;;;;3.70;1.90;;;;;;;16.65;100.00;99754.03;5011545;28;20087;-63
2022/06/08 01:26:51;;;;;;;5.78;2.00;;;;;;;16.55;100.00;99745.66;5010997;28;20058;-63
2022/06/08 01:29:37;;;;;;;8.32;2.80;;;;;;;16.57;100.00;99756.31;5011452;28;20025;-62
2022/06/08 01:32:57;;;;;;;5.75;3.03;;;;;;;16.50;100.00;99754.94;5011649;28;20034;-62
2022/06/08 01:35:47;;;;;;;5.13;2.00;;;;;;;16.46;100.00;99753.41;4955110;28;20049;-61
2022/06/08 01:38:33;;;;;;;5.13;2.05;;;;;;;16.42;100.00;99765.25;5011705;28;20052;-61
2022/06/08 01:41:23;;;;;;;5.75;2.30;;;;;;;16.38;100.00;99753.84;5011103;28;20524;-63
2022/06/08 01:43:55;;;;;;;5.25;2.13;;;;;;;16.32;100.00;99753.34;5011419;28;20026;-62
2022/06/08 01:46:25;;;;;;;6.33;2.20;;;;;;;16.29;100.00;99751.69;5011241;28;20428;-63
2022/06/08 01:48:50;;;;;;;8.93;2.97;;;;;;;16.26;100.00;99740.31;5011136;28;20488;-63
2022/06/08 01:51:50;;;;;;;4.15;2.20;;;;;;;16.25;100.00;99744.78;5011139;28;20046;-62
2022/06/08 01:54:35;;;;;;;4.47;2.20;;;;;;;16.21;100.00;99732.50;5011107;28;20030;-62
2022/06/08 01:57:31;;;;;;;4.20;2.17;;;;;;;16.16;100.00;99733.75;5011343;28;20030;-62
2022/06/08 02:00:08;;;;;;;4.53;2.38;;;;;;;16.14;100.00;99725.81;5010932;28;20029;-63
2022/06/08 02:02:52;;;;;;;4.55;2.22;;;;;;;16.12;100.00;99727.69;5011271;28;20375;-62
2022/06/08 02:05:29;;;;;;;4.20;2.58;;;;;;;16.06;100.00;99716.47;5011152;28;20112;-62
2022/06/08 02:07:54;;;;;;;8.40;2.20;;;;;;;16.05;100.00;99726.31;5011110;28;20022;-63
2022/06/08 02:10:26;;;;;;;6.60;2.63;;;;;;;16.06;100.00;99719.16;5010403;28;20033;-63
2022/06/08 02:13:19;;;;;;;5.32;2.30;;;;;;;16.04;100.00;99713.00;4991474;28;20032;-63
2022/06/08 02:15:50;;;;;;;3.63;1.80;;;;;;;16.02;100.00;99717.59;5009503;28;20397;-63
2022/06/08 02:18:40;;;;;;;3.78;2.08;;;;;;;15.97;100.00;99704.47;5010863;28;20356;-63
2022/06/08 02:21:26;;;;;;;4.32;2.00;;;;;;;15.96;100.00;99705.44;5010331;28;20037;-63
2022/06/08 02:24:01;;;;;;;3.33;1.92;;;;;;;15.95;100.00;99703.69;5010987;28;20021;-62
2022/06/08 02:26:35;;;;;;;4.00;2.40;;;;;;;15.90;100.00;99711.13;5010584;28;20056;-62
2022/06/08 02:29:12;;;;;;;5.30;1.98;;;;;;;15.87;100.00;99705.09;5010722;28;20394;-62
2022/06/08 02:31:44;;;;;;;5.85;2.40;;;;;;;15.75;100.00;99686.09;4993331;28;20033;-62
2022/06/08 02:34:31;;;;;;;7.40;2.40;;;;;;;15.80;100.00;99694.72;5010097;28;20095;-62
2022/06/08 02:37:04;;;;;;;3.72;2.42;;;;;;;15.75;100.00;99696.81;5009258;28;20034;-62
2022/06/08 02:39:38;;;;;;;7.63;2.03;;;;;;;15.73;100.00;99693.34;5009338;28;20026;-62
2022/06/08 02:42:10;;;;;;;4.03;2.20;;;;;;;15.67;100.00;99679.44;5009225;28;20083;-63
2022/06/08 02:44:40;;;;;;;3.97;1.70;;;;;;;15.71;100.00;99689.06;5009389;28;20060;-62
2022/06/08 02:47:19;;;;;;;6.60;2.47;;;;;;;15.68;100.00;99690.06;5008997;28;20057;-62
2022/06/08 02:49:45;;;;;;;3.72;2.35;;;;;;;15.65;100.00;99684.91;5010240;28;20565;-62
2022/06/08 02:52:29;;;;;;;10.18;2.28;;;;;;;15.41;100.00;99647.94;5013807;28;20029;-62
2022/06/08 02:54:56;;;;;;;5.38;2.33;;;;;;;15.60;100.00;99676.25;5014315;28;20516;-62
2022/06/08 02:57:42;;;;;;;4.97;2.33;;;;;;;15.59;100.00;99689.75;5014147;28;20080;-62
2022/06/08 03:00:18;;;;;;;5.38;2.65;;;;;;;15.63;100.00;99683.28;5014120;28;20478;-62
2022/06/08 03:02:53;;;;;;;5.05;2.33;;;;;;;15.63;100.00;99676.06;5014245;28;20036;-62
2022/06/08 03:05:27;;;;;;;9.88;2.60;;;;;;;15.61;100.00;99680.69;5014339;28;20030;-62
2022/06/08 03:07:59;;;;;;;5.40;2.28;;;;;;;15.62;100.00;99674.34;5014322;28;20076;-62
2022/06/08 03:10:27;;;;;;;4.35;2.05;;;;;;;15.61;100.00;99679.81;5013999;28;20053;-62
2022/06/08 03:13:00;;;;;;;5.72;2.30;;;;;;;15.61;100.00;99669.97;5013097;28;20033;-62
2022/06/08 03:15:26;;;;;;;5.45;2.28;;;;;;;15.58;100.00;99664.75;5012411;28;20440;-62
2022/06/08 03:17:52;;;;;;;3.80;2.17;;;;;;;15.61;100.00;99669.97;5011475;28;20061;-62
2022/06/08 03:20:21;;;;;;;5.93;2.67;;;;;;;15.62;100.00;99670.81;5011710;28;20065;-63
2022/06/08 03:22:47;;;;;;;4.13;2.25;;;;;;;15.59;100.00;99669.19;5011474;28;20343;-62
2022/06/08 03:25:14;;;;;;;4.65;2.30;;;;;;;15.61;100.00;99669.09;5011613;28;20084;-62
2022/06/08 03:27:42;;;;;;;5.95;2.15;;;;;;;15.57;100.00;99665.72;5011730;28;20132;-62
2022/06/08 03:30:09;;;;;;;3.58;2.00;;;;;;;15.52;100.00;99662.44;5012260;28;20096;-62
2022/06/08 03:32:34;;;;;;;5.80;2.30;;;;;;;15.50;100.00;99668.84;5013538;28;20405;-62
2022/06/08 03:35:03;;;;;;;5.13;2.20;;;;;;;15.46;100.00;99661.94;5013559;28;20026;-62
2022/06/08 03:37:30;;;;;;;7.55;2.25;;;;;;;15.45;100.00;99663.75;5013414;28;20107;-63
2022/06/08 03:39:58;;;;;;;6.68;2.05;;;;;;;15.43;100.00;99668.34;5013699;28;20043;-63
2022/06/08 03:42:24;;;;;;;3.97;2.42;;;;;;;15.41;100.00;99670.25;5013352;28;20029;-63
2022/06/08 03:44:49;;;;;;;4.32;2.13;;;;;;;15.36;100.00;99672.28;5013539;28;20029;-63
2022/06/08 03:47:20;;;;;;;3.45;2.20;;;;;;;15.32;100.00;99673.41;5013282;28;20030;-63
2022/06/08 03:49:46;;;;;;;7.38;2.03;;;;;;;15.32;100.00;99676.09;5013293;28;20072;-63
2022/06/08 03:52:17;;;;;;;5.15;2.45;;;;;;;15.29;100.00;99678.94;5013041;28;20033;-63
2022/06/08 03:54:50;;;;;;;5.68;2.03;;;;;;;15.30;100.00;99672.66;5013307;28;20032;-63
2022/06/08 03:57:17;;;;;;;5.77;2.10;;;;;;;15.27;100.00;99667.44;5013516;28;20461;-63
2022/06/08 03:59:44;;;;;;;4.30;2.10;;;;;;;15.27;100.00;99658.56;5013087;28;20112;-63
2022/06/08 04:02:11;;;;;;;4.40;2.30;;;;;;;15.33;100.00;99663.56;5012849;28;20029;-63
2022/06/08 04:04:37;;;;;;;5.07;2.35;;;;;;;15.35;100.00;99654.47;5013091;28;20114;-63
2022/06/08 04:07:04;;;;;;;3.83;1.80;;;;;;;15.39;100.00;99642.66;5012556;28;20104;-63
2022/06/08 04:09:29;;;;;;;4.80;2.60;;;;;;;15.48;100.00;99642.13;5012991;28;20068;-63
2022/06/08 04:11:55;;;;;;;4.97;2.40;;;;;;;15.52;100.00;99645.47;5012222;28;20057;-63
2022/06/08 04:14:21;;;;;;;6.88;2.42;;;;;;;15.51;100.00;99652.69;5011728;28;20021;-63
2022/06/08 04:16:47;;;;;;;7.63;2.42;;;;;;;15.53;100.00;99647.22;5011572;28;20028;-63
2022/06/08 04:19:13;;;;;;;8.23;2.67;;;;;;;15.53;100.00;99653.44;5011548;28;20029;-63
2022/06/08 04:21:40;;;;;;;6.38;2.47;;;;;;;15.47;100.00;99643.06;5011656;28;20025;-63
2022/06/08 04:24:06;;;;;;;4.65;2.05;;;;;;;15.56;100.00;99653.28;5011520;28;20025;-63
2022/06/08 04:26:32;;;;;;;3.95;2.00;;;;;;;15.62;100.00;99652.91;5007581;28;20053;-63
2022/06/08 04:28:58;;;;;;;11.27;2.58;;;;;;;15.66;100.00;99658.97;5009426;28;20397;-63
2022/06/08 04:31:23;;;;;;;5.60;2.15;;;;;;;15.63;100.00;99664.50;5009836;28;20030;-63
2022/06/08 04:33:50;;;;;;;6.70;2.47;;;;;;;15.67;100.00;99669.59;5010382;28;20033;-63
2022/06/08 04:36:16;;;;;;;4.30;2.17;;;;;;;15.66;100.00;99659.84;5010589;28;20524;-62
2022/06/08 04:38:41;;;;;;;3.95;2.20;;;;;;;15.79;100.00;99666.19;5010400;28;20033;-62
2022/06/08 04:41:07;;;;;;;5.40;2.60;;;;;;;15.83;100.00;99662.34;5011854;28;20474;-63
2022/06/08 04:43:33;;;;;;;5.10;2.00;;;;;;;15.94;100.00;99663.53;5011999;28;20037;-63
2022/06/08 04:45:59;;;;;;;3.88;2.55;;;;;;;16.01;100.00;99644.31;5012229;28;20029;-63
2022/06/08 04:48:24;;;;;;;5.50;2.70;;;;;;;16.13;100.00;99648.06;5011937;28;20072;-63
2022/06/08 04:50:49;;;;;;;4.95;2.38;;;;;;;16.24;100.00;99648.28;5011854;28;20028;-63
2022/06/08 04:53:16;;;;;;;6.55;2.35;;;;;;;16.34;100.00;99641.38;5012306;28;20022;-63
2022/06/08 04:55:41;;;;;;;7.88;2.75;;;;;;;16.43;100.00;99646.16;5011651;28;20030;-63
2022/06/08 04:58:06;;;;;;;5.40;2.60;;;;;;;16.48;100.00;99646.78;5011609;28;20029;-63
2022/06/08 05:00:32;;;;;;;3.55;2.13;;;;;;;16.51;100.00;99649.25;5011843;28;20034;-63
2022/06/08 05:02:59;;;;;;;4.35;2.72;;;;;;;16.52;100.00;99645.63;5012006;28;20097;-63
2022/06/08 05:05:30;;;;;;;7.85;2.33;;;;;;;16.54;100.00;99649.94;5011770;28;20037;-63
2022/06/08 05:07:57;;;;;;;6.40;2.20;;;;;;;16.54;100.00;99655.31;5012058;28;20447;-63
2022/06/08 05:10:25;;;;;;;3.97;2.00;;;;;;;16.60;100.00;99654.94;5011898;28;20428;-63
2022/06/08 05:12:51;;;;;;;5.22;2.08;;;;;;;16.78;100.00;99650.22;5011349;28;20105;-63
2022/06/08 05:15:20;;;;;;;3.75;1.95;;;;;;;16.97;100.00;99645.38;5011872;28;20563;-63
2022/06/08 05:17:46;;;;;;;4.63;2.20;;;;;;;17.12;100.00;99635.50;5007389;28;20080;-62
2022/06/08 05:20:13;;;;;;;4.30;2.53;;;;;;;17.31;99.75;99636.00;5009714;28;20057;-62
2022/06/08 05:22:39;;;;;;;3.58;2.30;;;;;;;17.44;98.27;99629.72;5009759;28;20068;-63
2022/06/08 05:25:06;;;;;;;4.38;2.63;;;;;;;17.60;98.36;99626.88;5010320;28;20033;-63
2022/06/08 05:27:32;;;;;;;3.60;2.10;;;;;;;17.68;97.65;99629.91;5010086;28;20062;-63
2022/06/08 05:29:57;;;;;;;5.22;2.17;;;;;;;17.72;96.60;99629.63;5008844;28;20014;-63
2022/06/08 05:32:22;;;;;;;4.40;2.20;;;;;;;17.78;96.22;99626.50;5009531;28;20516;-63
2022/06/08 05:34:48;;;;;;;8.48;2.20;;;;;;;17.89;96.08;99623.94;5009475;28;20109;-63
2022/06/08 05:37:13;;;;;;;5.72;2.38;;;;;;;17.99;95.50;99619.66;5008447;28;20432;-63
2022/06/08 05:39:39;;;;;;;3.95;2.10;;;;;;;18.16;95.20;99621.19;5009928;28;20072;-63
2022/06/08 05:42:05;;;;;;;2.92;2.00;;;;;;;18.31;94.82;99618.28;5009871;28;20486;-63
2022/06/08 05:44:32;;;;;;;7.47;2.20;;;;;;;18.50;94.02;99623.25;5009357;28;20097;-63
2022/06/08 05:46:58;;;;;;;5.47;1.95;;;;;;;18.70;92.84;99616.47;5009321;28;20038;-63
2022/06/08 05:49:23;;;;;;;4.88;1.77;;;;;;;18.85;91.19;99608.13;4991725;28;20152;-63
2022/06/08 05:51:49;;;;;;;6.70;1.98;;;;;;;19.07;90.90;99605.59;5009945;28;20042;-63
2022/06/08 05:54:15;;;;;;;5.25;2.17;;;;;;;19.29;88.06;99602.19;5001478;28;20080;-63
2022/06/08 05:56:41;;;;;;;3.97;1.70;;;;;;;19.38;84.89;99606.88;4990563;28;20033;-63
2022/06/08 05:59:07;;;;;;;2.85;1.50;;;;;;;19.44;84.32;99599.19;5003768;28;20121;-63
2022/06/08 06:01:33;;;;;;;5.22;1.77;;;;;;;19.61;81.47;99600.63;5009387;28;20096;-63
2022/06/08 06:04:03;;;;;;;4.32;1.52;;;;;;;19.73;82.29;99594.28;5008136;28;20036;-63
2022/06/08 06:06:29;;;;;;;3.75;1.90;;;;;;;19.80;81.19;99590.16;5009598;28;20064;-63
2022/06/08 06:08:55;;;;;;;2.85;1.40;;;;;;;19.92;78.85;99588.34;5008362;28;20058;-63
2022/06/08 06:11:20;;;;;;;3.83;1.48;;;;;;;19.86;78.87;99588.81;5009566;28;20448;-63
2022/06/08 06:13:46;;;;;;;4.15;1.63;;;;;;;19.98;79.64;99586.03;5008378;28;20080;-63
2022/06/08 06:16:11;;;;;;;6.80;1.80;;;;;;;20.12;79.56;99580.41;5008441;28;20375;-63
2022/06/08 06:18:37;;;;;;;2.78;1.35;;;;;;;20.29;79.55;99581.81;5006890;28;20034;-63
2022/06/08 06:21:02;;;;;;;3.97;1.80;;;;;;;20.61;80.74;99583.66;5007492;28;20078;-63
2022/06/08 06:23:28;;;;;;;3.45;1.17;;;;;;;20.76;76.39;99579.72;5007895;28;20025;-63
2022/06/08 06:25:54;;;;;;;3.97;1.30;;;;;;;21.02;76.37;99584.88;5010933;28;20061;-63
2022/06/08 06:28:20;;;;;;;2.70;1.30;;;;;;;21.22;77.35;99576.00;5012773;28;20061;-63
2022/06/08 06:30:45;;;;;;;2.95;1.00;;;;;;;21.25;74.16;99584.69;5012882;28;20437;-63
2022/06/08 06:33:12;;;;;;;6.70;1.30;;;;;;;21.18;73.50;99588.03;5013338;28;20121;-63
2022/06/08 06:35:38;;;;;;;3.70;1.17;;;;;;;21.06;73.89;99579.09;5013577;28;20517;-63
2022/06/08 06:38:04;;;;;;;4.63;1.80;;;;;;;21.06;73.06;99589.03;5013126;28;20024;-63
2022/06/08 06:40:31;;;;;;;3.17;1.42;;;;;;;21.20;74.25;99580.66;5012638;28;20482;-63
2022/06/08 06:42:56;;;;;;;3.85;1.65;;;;;;;21.36;75.94;99575.69;5012445;28;20030;-65
2022/06/08 06:45:22;;;;;;;5.75;2.17;;;;;;;21.58;76.58;99565.63;5012838;28;20093;-63
2022/06/08 06:47:47;;;;;;;4.32;1.40;;;;;;;21.77;75.74;99564.97;5013235;28;20484;-63
2022/06/08 06:50:15;;;;;;;4.88;1.50;;;;;;;21.88;74.21;99563.06;5012682;28;20109;-64
2022/06/08 06:52:41;;;;;;;3.05;1.10;;;;;;;22.01;73.10;99562.84;5012209;28;20382;-64
2022/06/08 06:55:07;;;;;;;4.38;1.20;;;;;;;22.11;72.16;99551.09;5011823;28;20025;-64
2022/06/08 06:57:32;;;;;;;2.08;1.10;;;;;;;22.16;71.46;99561.50;5012972;28;20132;-64
2022/06/08 06:59:58;;;;;;;6.00;1.23;;;;;;;22.28;72.05;99546.91;4994877;28;20493;-64
2022/06/08 07:02:23;;;;;;;1.80;1.08;;;;;;;22.59;72.40;99556.78;5012529;28;20030;-63
2022/06/08 07:04:49;;;;;;;3.75;1.83;;;;;;;22.62;69.25;99564.63;5011375;28;20135;-63
2022/06/08 07:07:16;;;;;;;3.30;1.08;;;;;;;22.81;70.76;99559.31;5012791;28;20486;-63
2022/06/08 07:09:44;;;;;;;2.63;1.00;;;;;;;22.93;69.64;99554.63;5012793;28;20091;-63
2022/06/08 07:12:12;;;;;;;2.13;1.20;;;;;;;22.89;65.02;99551.31;5010424;28;20061;-63
2022/06/08 07:14:38;;;;;;;3.53;1.42;;;;;;;22.91;64.65;99533.06;5008845;28;20029;-63
2022/06/08 07:17:03;;;;;;;3.10;1.42;;;;;;;23.32;62.67;99546.44;5009204;28;20049;-64
2022/06/08 07:19:29;;;;;;;3.42;1.23;;;;;;;23.44;63.70;99537.16;5009081;28;20029;-64
2022/06/08 07:21:55;;;;;;;8.70;1.10;;;;;;;23.77;61.64;99544.03;5009918;28;20049;-63
2022/06/08 07:24:35;;;;;;;2.85;0.93;;;;;;;23.93;57.58;99541.56;5009960;28;20026;-64
2022/06/08 07:27:03;;;;;;;5.45;2.60;;;;;;;24.10;56.61;99545.44;5009093;28;20126;-63
2022/06/08 07:29:29;;;;;;;2.83;0.82;;;;;;;24.39;56.42;99546.19;5011584;28;20481;-63
2022/06/08 07:31:54;;;;;;;1.13;0.70;;;;;;;24.78;55.56;99544.22;5012114;28;20025;-63
2022/06/08 07:34:20;;;;;;;1.13;0.70;;;;;;;25.01;52.69;99542.81;5011905;28;20064;-63
2022/06/08 07:36:46;;;;;;;2.13;0.85;;;;;;;25.18;50.86;99542.81;5008730;28;20022;-63
2022/06/08 07:39:14;;;;;;;2.75;0.95;;;;;;;25.20;52.78;99540.81;5012642;28;20036;-63
2022/06/08 07:41:39;;;;;;;3.70;1.00;;;;;;;25.45;53.03;99536.50;5013595;28;20485;-64
2022/06/08 07:44:05;;;;;;;2.58;1.20;;;;;;;25.61;50.41;99523.91;5013177;28;20025;-63
2022/06/08 07:46:30;;;;;;;2.75;1.35;;;;;;;26.07;49.80;99522.75;5011508;28;20539;-63
2022/06/08 07:51:40;;;;;;;3.75;1.00;;;;;;;27.10;48.86;99520.72;5011605;28;20040;-63
2022/06/08 07:54:05;;;;;;;3.90;0.73;;;;;;;27.01;46.33;99513.56;5011450;28;20026;-63
2022/06/08 07:56:31;;;;;;;1.25;0.60;;;;;;;26.80;46.67;99519.44;5011614;28;20117;-63
2022/06/08 07:58:56;;;;;;;2.38;0.90;;;;;;;26.66;46.72;99519.19;5011398;28;20095;-63
2022/06/08 08:01:22;;;;;;;4.63;1.70;;;;;;;26.31;47.35;99513.88;5011319;28;20466;-63
2022/06/08 08:03:47;;;;;;;3.65;0.88;;;;;;;26.15;48.75;99513.75;5011618;28;20421;-63
2022/06/08 08:06:13;;;;;;;3.30;1.40;;;;;;;26.07;49.48;99505.53;5011070;28;20113;-63
2022/06/08 08:08:38;;;;;;;2.10;0.90;;;;;;;25.86;49.85;99503.97;5010375;28;20477;-63
2022/06/08 08:11:05;;;;;;;1.40;0.82;;;;;;;25.62;50.01;99498.34;5012740;28;20026;-63
2022/06/08 08:13:30;;;;;;;1.52;0.73;;;;;;;25.57;50.85;99502.53;5012828;28;20098;-63
2022/06/08 08:15:56;;;;;;;2.80;0.80;;;;;;;25.72;51.77;99493.66;5012516;28;20466;-63
2022/06/08 08:18:21;;;;;;;2.95;1.20;;;;;;;26.50;51.54;99498.13;5012465;28;20037;-63
2022/06/08 08:20:47;;;;;;;1.85;0.73;;;;;;;26.81;48.95;99501.19;5012362;28;20022;-64
2022/06/08 08:23:12;;;;;;;2.25;0.52;;;;;;;26.55;48.11;99494.91;5012745;28;20091;-63
2022/06/08 08:25:38;;;;;;;4.88;1.60;;;;;;;26.40;48.70;99491.94;5012155;28;20108;-63
2022/06/08 08:28:04;;;;;;;2.42;0.90;;;;;;;26.23;48.12;99494.75;5012269;28;20036;-63
2022/06/08 08:30:31;;;;;;;3.90;1.25;;;;;;;26.30;49.58;99484.88;5012320;28;20025;-63
2022/06/08 08:32:57;;;;;;;6.07;0.68;;;;;;;26.35;48.92;99479.81;5012825;28;20026;-63
2022/06/08 08:35:24;;;;;;;4.53;0.98;;;;;;;26.17;48.96;99479.88;5012244;28;20458;-63
2022/06/08 08:37:50;;;;;;;2.40;0.70;;;;;;;26.19;50.95;99471.53;5012559;28;20044;-63
2022/06/08 08:40:39;;;;;;;3.17;1.05;;;;;;;26.26;51.93;99467.16;5012710;28;20057;-63
2022/06/08 08:43:09;;;;;;;6.15;1.02;;;;;;;26.59;49.14;99469.03;5002721;28;20040;-63
2022/06/08 08:45:43;;;;;;;2.60;0.68;;;;;;;27.06;47.10;99462.88;5011942;28;20048;-63
2022/06/08 08:48:24;;;;;;;3.47;0.77;;;;;;;27.25;46.20;99458.97;5009995;28;20030;-64
2022/06/08 08:51:09;;;;;;;3.35;0.60;;;;;;;27.48;45.73;99451.84;5010259;28;20058;-63
2022/06/08 08:53:40;;;;;;;2.38;1.00;;;;;;;27.59;45.66;99451.53;5010104;28;20412;-63
2022/06/08 08:56:14;;;;;;;3.58;0.90;;;;;;;27.62;46.11;99451.19;5010483;28;20397;-63
2022/06/08 08:58:44;;;;;;;3.45;0.80;;;;;;;27.83;45.47;99446.03;5010555;28;20026;-63
2022/06/08 09:01:27;;;;;;;3.40;1.10;;;;;;;27.90;46.20;99444.34;5010540;28;20108;-63
2022/06/08 09:03:57;;;;;;;6.20;0.80;;;;;;;28.19;45.22;99441.88;5011100;28;20025;-64
2022/06/08 09:06:32;;;;;;;3.65;0.70;;;;;;;28.16;45.17;99431.31;5011669;28;20038;-64
2022/06/08 09:09:00;;;;;;;3.00;0.85;;;;;;;27.99;45.53;99434.25;4994511;28;20018;-64
2022/06/08 09:11:39;;;;;;;5.78;1.58;;;;;;;27.94;43.98;99431.19;5009987;28;20030;-63
2022/06/08 09:14:26;;;;;;;4.35;1.00;;;;;;;27.89;46.15;99428.97;5009890;28;20405;-63
2022/06/08 09:17:10;;;;;;;3.55;0.70;;;;;;;28.22;44.57;99427.84;5009667;28;20381;-64
2022/06/08 09:19:37;;;;;;;3.78;0.75;;;;;;;28.22;44.26;99414.19;5010508;28;20083;-63
2022/06/08 09:22:23;;;;;;;1.85;0.70;;;;;;;28.27;44.11;99417.25;5011519;28;20037;-63
2022/06/08 09:25:00;;;;;;;3.38;0.80;;;;;;;28.34;43.90;99406.44;5011911;28;20090;-63
2022/06/08 09:27:35;;;;;;;2.28;1.10;;;;;;;28.89;43.33;99406.38;5011356;28;20053;-64
2022/06/08 09:30:01;;;;;;;2.95;0.73;;;;;;;29.37;42.29;99401.41;5011639;28;20128;-64
2022/06/08 09:32:34;;;;;;;3.67;0.60;;;;;;;29.35;41.06;99397.16;5010228;28;20441;-64
2022/06/08 09:35:03;;;;;;;1.88;0.52;;;;;;;29.53;40.61;99405.91;5010429;28;20076;-63
2022/06/08 09:37:30;;;;;;;2.95;0.55;;;;;;;29.88;39.91;99399.78;5009790;28;20045;-63
2022/06/08 09:40:01;;;;;;;2.28;0.75;;;;;;;29.93;39.93;99396.47;5010412;28;20014;-63
2022/06/08 09:42:41;;;;;;;2.33;0.43;;;;;;;30.02;38.86;99396.19;5011145;28;20029;-63
2022/06/08 09:45:25;;;;;;;2.38;0.50;;;;;;;30.34;37.92;99395.84;5011398;28;20092;-63
2022/06/08 09:51:31;;;;;;;5.05;0.70;;;;;;;29.85;37.55;99383.69;5011260;28;20041;-63
2022/06/08 09:54:12;;;;;;;1.77;0.50;;;;;;;30.00;38.02;99372.75;5011085;28;20113;-63
2022/06/08 09:57:02;;;;;;;0.98;0.40;;;;;;;29.58;38.11;99374.16;5011127;28;20080;-63
2022/06/08 09:59:54;;;;;;;2.85;0.52;;;;;;;29.57;39.22;99366.13;5011060;28;20014;-63
2022/06/08 10:02:37;;;;;;;4.80;0.60;;;;;;;29.47;37.65;99368.28;5010852;28;20034;-63
2022/06/08 10:05:14;;;;;;;3.72;0.70;;;;;;;29.96;38.52;99366.78;5011342;28;20053;-63
2022/06/08 10:07:52;;;;;;;2.03;0.50;;;;;;;30.25;38.81;99357.69;5009494;28;20504;-64
2022/06/08 10:10:27;;;;;;;4.20;0.80;;;;;;;30.14;37.40;99361.75;5009497;28;20166;-64
2022/06/08 10:12:58;;;;;;;3.65;0.63;;;;;;;30.30;37.75;99356.09;5008549;28;20048;-64
2022/06/08 10:15:24;;;;;;;2.72;0.52;;;;;;;30.43;35.72;99349.91;5009371;28;20124;-64
2022/06/08 10:18:10;;;;;;;2.25;0.68;;;;;;;30.39;35.48;99349.47;5009029;28;20485;-64
2022/06/08 10:20:39;;;;;;;3.13;0.60;;;;;;;30.78;36.29;99349.09;5010048;28;20105;-64
2022/06/08 10:23:28;;;;;;;2.03;0.65;;;;;;;31.17;35.84;99348.66;5010661;28;20022;-64
2022/06/08 10:26:03;;;;;;;1.10;0.40;;;;;;;31.03;33.17;99341.34;4998360;28;20060;-64
2022/06/08 10:28:38;;;;;;;4.70;0.60;;;;;;;30.63;33.84;99340.88;5010607;28;20037;-63
2022/06/08 10:31:13;;;;;;;4.07;0.40;;;;;;;30.94;34.11;99334.28;5010906;28;20030;-64
2022/06/08 10:34:13;;;;;;;0.95;0.32;;;;;;;30.53;33.47;99328.50;5010645;28;20025;-63
2022/06/08 10:36:41;;;;;;;2.28;0.75;;;;;;;30.51;33.80;99320.44;4977175;28;20049;-63
2022/06/08 10:39:08;;;;;;;3.22;0.45;;;;;;;30.90;34.22;99325.56;5010806;28;20076;-63
2022/06/08 10:44:43;;;;;;;2.60;0.57;;;;;;;31.18;33.90;99311.88;5010873;28;20092;-64
2022/06/08 10:47:11;;;;;;;2.42;0.50;;;;;;;31.57;33.46;99318.59;5010776;28;20110;-64
2022/06/08 10:49:37;;;;;;;1.40;0.40;;;;;;;31.55;33.52;99314.34;5010619;28;20033;-63
2022/06/08 10:52:17;;;;;;;1.10;0.40;;;;;;;31.33;32.45;99310.78;5010549;28;20029;-63
2022/06/08 10:54:58;;;;;;;1.77;0.20;;;;;;;30.31;31.22;99313.88;5009955;28;20041;-63
2022/06/08 10:57:40;;;;;;;1.10;0.20;;;;;;;30.45;33.79;99312.13;5009459;28;20030;-63
2022/06/08 11:00:20;;;;;;;1.10;0.28;;;;;;;30.86;35.00;99303.13;5009655;28;20032;-63
2022/06/08 11:02:54;;;;;;;0.82;0.32;;;;;;;31.15;31.62;99302.16;5009230;28;20021;-63
2022/06/08 11:05:46;;;;;;;1.20;0.43;;;;;;;31.11;32.61;99306.31;5002765;28;20077;-63
2022/06/08 11:08:22;;;;;;;2.22;0.50;;;;;;;30.89;32.26;99301.88;4989197;28;20044;-63
2022/06/08 11:10:48;;;;;;;1.55;0.40;;;;;;;30.19;33.77;99293.44;4990918;28;20093;-63
2022/06/08 11:13:25;;;;;;;2.33;0.52;;;;;;;29.72;32.72;99294.91;4994240;28;20438;-63
2022/06/08 11:15:53;;;;;;;1.33;0.40;;;;;;;29.08;35.24;99301.81;4994774;28;20037;-63
2022/06/08 11:18:43;;;;;;;1.42;0.40;;;;;;;29.49;35.87;99289.44;5011510;28;20030;-63
2022/06/08 11:21:14;;;;;;;1.23;0.47;;;;;;;29.55;35.54;99283.22;5013944;28;20036;-63
2022/06/08 11:23:43;;;;;;;1.58;0.40;;;;;;;28.98;34.67;99282.06;5013740;28;20029;-63
2022/06/08 11:26:24;;;;;;;2.63;0.47;;;;;;;28.38;35.65;99281.94;5013886;28;20064;-63
2022/06/08 11:29:00;;;;;;;2.80;0.60;;;;;;;28.05;36.42;99274.94;5013947;28;20033;-63
2022/06/08 11:31:25;;;;;;;2.28;0.47;;;;;;;28.03;37.97;99274.25;5013770;28;20105;-63
2022/06/08 11:34:18;;;;;;;2.35;0.40;;;;;;;28.16;38.88;99277.28;5013606;28;20168;-63
2022/06/08 11:36:43;;;;;;;2.38;0.50;;;;;;;28.30;37.83;99277.34;5013715;28;20028;-63
2022/06/08 11:39:24;;;;;;;2.35;0.40;;;;;;;28.23;37.27;99262.72;5012270;28;20440;-63
2022/06/08 11:42:24;;;;;;;3.05;0.47;;;;;;;28.21;37.39;99264.78;5012068;28;20440;-63
2022/06/08 11:44:59;;;;;;;4.75;0.57;;;;;;;27.87;38.04;99260.66;5012211;28;20022;-63
2022/06/08 11:47:54;;;;;;;3.88;0.60;;;;;;;27.86;37.96;99259.78;5011996;28;20100;-63
2022/06/08 11:50:30;;;;;;;2.08;0.57;;;;;;;27.78;38.40;99254.34;5008872;28;20034;-63
2022/06/08 11:53:05;;;;;;;1.35;0.40;;;;;;;27.71;38.38;99261.53;5012124;28;20552;-63
2022/06/08 11:55:37;;;;;;;1.33;0.60;;;;;;;27.82;38.91;99242.03;5013583;28;20393;-63